Time;durP1;ratioP1;P1;durP2;ratioP2;P2;SDS_P1;SDS_P2;PMS_P1;PMS_P2;Temp;Humidity;BMP_temperature;BMP_pressure;BME280_temperature;BME280_humidity;BME280_pressure;Samples;Min_cycle;Max_cycle;Signal;HPM_P1;HPM_P2
2022/09/29 00:02:38;;;;;;;2.85;1.98;;;11.90;99.90;;;;;;10013419;28;20029;-65
2022/09/29 00:07:31;;;;;;;5.57;2.28;;;11.90;99.90;;;;;;9993692;28;20497;-66
2022/09/29 00:12:21;;;;;;;3.22;2.08;;;11.80;99.90;;;;;;10010991;28;20038;-62
2022/09/29 00:17:13;;;;;;;2.35;1.67;;;11.70;99.90;;;;;;10008887;28;20404;-63
2022/09/29 00:22:03;;;;;;;3.53;2.35;;;11.70;99.90;;;;;;10012196;28;20064;-62
2022/09/29 00:26:54;;;;;;;3.45;2.05;;;11.70;99.90;;;;;;10011086;28;20022;-63
2022/09/29 00:31:45;;;;;;;4.28;2.13;;;11.70;99.90;;;;;;10006863;28;20121;-63
2022/09/29 00:36:36;;;;;;;3.03;2.08;;;11.80;99.90;;;;;;10012786;28;20038;-62
2022/09/29 00:41:33;;;;;;;4.30;2.88;;;11.70;99.90;;;;;;10012696;28;20033;-61
2022/09/29 00:46:26;;;;;;;2.92;2.20;;;11.60;99.90;;;;;;10012630;28;20133;-61
2022/09/29 00:51:19;;;;;;;3.45;1.90;;;11.60;99.90;;;;;;10012068;28;20053;-62
2022/09/29 00:56:14;;;;;;;3.75;2.38;;;11.60;99.90;;;;;;10013480;28;20049;-62
2022/09/29 01:01:05;;;;;;;5.95;2.28;;;11.60;99.90;;;;;;10012308;28;20065;-61
2022/09/29 01:06:02;;;;;;;3.28;1.92;;;11.50;99.90;;;;;;10012736;28;20107;-62
2022/09/29 01:10:53;;;;;;;5.95;2.95;;;11.50;99.90;;;;;;10012668;28;20040;-62
2022/09/29 01:15:44;;;;;;;2.85;1.63;;;11.60;99.90;;;;;;10019673;28;20038;-62
2022/09/29 01:20:49;;;;;;;2.65;1.80;;;11.50;99.90;;;;;;10018979;28;20034;-62
2022/09/29 01:25:56;;;;;;;2.00;1.60;;;11.50;99.90;;;;;;10017111;28;20032;-61
2022/09/29 01:31:14;;;;;;;3.20;2.15;;;11.50;99.90;;;;;;10013110;28;20022;-62
2022/09/29 01:36:19;;;;;;;4.28;2.33;;;11.40;99.90;;;;;;10016740;28;20038;-63
2022/09/29 01:41:35;;;;;;;3.15;2.20;;;11.40;99.90;;;;;;10018503;28;20022;-64
2022/09/29 01:46:32;;;;;;;4.13;2.27;;;11.40;99.90;;;;;;10015120;28;20065;-62
2022/09/29 01:51:45;;;;;;;6.53;2.85;;;11.40;99.90;;;;;;10017775;28;20100;-63
2022/09/29 01:56:42;;;;;;;2.60;2.22;;;11.30;99.90;;;;;;10010747;28;20129;-63
2022/09/29 02:01:37;;;;;;;3.05;2.03;;;11.30;99.90;;;;;;10017412;28;20383;-61
2022/09/29 02:06:37;;;;;;;3.87;2.17;;;11.30;99.90;;;;;;10017971;28;20034;-62
2022/09/29 02:11:32;;;;;;;3.63;2.25;;;11.30;99.90;;;;;;10018117;28;20173;-62
2022/09/29 02:16:29;;;;;;;2.22;1.75;;;11.30;99.90;;;;;;10017578;28;20312;-62
2022/09/29 02:21:25;;;;;;;4.00;2.20;;;11.30;99.90;;;;;;10016921;28;20037;-63
2022/09/29 02:26:16;;;;;;;3.60;2.97;;;11.30;99.90;;;;;;10017135;28;20048;-62
2022/09/29 02:31:07;;;;;;;3.65;2.58;;;11.20;99.90;;;;;;10008425;28;20144;-63
2022/09/29 02:36:08;;;;;;;4.88;2.50;;;11.20;99.90;;;;;;10016610;28;20071;-63
2022/09/29 02:41:13;;;;;;;3.72;2.33;;;11.20;99.90;;;;;;10014487;28;20103;-63
2022/09/29 02:46:29;;;;;;;5.72;2.47;;;11.20;99.90;;;;;;10016596;28;20169;-63
2022/09/29 02:51:23;;;;;;;4.05;2.38;;;11.20;99.90;;;;;;10014221;28;20153;-62
2022/09/29 02:56:28;;;;;;;3.58;2.38;;;11.30;99.90;;;;;;10015274;28;20453;-61
2022/09/29 03:01:19;;;;;;;7.53;3.03;;;11.40;99.90;;;;;;10015398;28;20045;-62
2022/09/29 03:06:11;;;;;;;5.80;2.38;;;11.40;99.90;;;;;;9993790;28;20072;-62
2022/09/29 03:11:02;;;;;;;4.00;2.50;;;11.40;99.90;;;;;;10011255;28;20045;-62
2022/09/29 03:15:53;;;;;;;6.07;3.17;;;11.60;99.90;;;;;;10014156;28;20370;-62
2022/09/29 03:20:43;;;;;;;7.15;3.22;;;11.60;99.90;;;;;;10011916;28;20045;-63
2022/09/29 03:25:34;;;;;;;5.32;3.63;;;11.70;99.90;;;;;;10007475;28;20044;-62
2022/09/29 03:30:25;;;;;;;6.40;3.28;;;11.70;99.90;;;;;;10006776;28;20030;-62
2022/09/29 03:35:15;;;;;;;4.03;2.40;;;11.70;99.90;;;;;;10014385;28;20088;-63
2022/09/29 03:40:07;;;;;;;5.28;3.00;;;11.70;99.90;;;;;;10014620;28;20037;-64
2022/09/29 03:44:57;;;;;;;5.20;3.17;;;11.80;99.90;;;;;;10014530;28;20046;-63
2022/09/29 03:49:48;;;;;;;3.20;2.72;;;11.80;99.90;;;;;;10012688;28;20188;-64
2022/09/29 03:54:39;;;;;;;4.63;2.50;;;11.80;99.90;;;;;;10014975;28;20030;-65
2022/09/29 03:59:29;;;;;;;4.22;2.85;;;11.90;99.90;;;;;;10013202;28;20045;-63
2022/09/29 04:04:20;;;;;;;5.95;3.17;;;11.80;99.90;;;;;;10013934;28;20022;-64
2022/09/29 04:09:10;;;;;;;3.55;2.13;;;11.80;99.90;;;;;;10013142;28;20516;-63
2022/09/29 04:14:01;;;;;;;5.95;2.42;;;11.80;99.90;;;;;;10013715;28;20277;-61
2022/09/29 04:18:52;;;;;;;4.43;2.08;;;11.70;99.90;;;;;;10012730;28;20078;-63
2022/09/29 04:23:42;;;;;;;5.95;2.63;;;11.70;99.90;;;;;;10014219;28;21198;-62
2022/09/29 04:28:35;;;;;;;6.15;3.10;;;11.70;99.90;;;;;;10006128;28;20029;-63
2022/09/29 04:33:26;;;;;;;4.63;2.40;;;11.60;99.90;;;;;;10013091;28;20021;-62
2022/09/29 04:38:17;;;;;;;4.10;2.50;;;11.60;99.90;;;;;;10012681;28;20104;-62
2022/09/29 04:43:08;;;;;;;8.50;3.08;;;11.60;99.90;;;;;;10012492;28;20026;-62
2022/09/29 04:47:59;;;;;;;6.05;3.60;;;11.70;99.90;;;;;;10016721;28;20129;-63
2022/09/29 04:52:49;;;;;;;5.47;3.45;;;11.60;99.90;;;;;;10020652;28;20117;-63
2022/09/29 04:57:42;;;;;;;5.00;3.33;;;11.50;99.90;;;;;;10020039;28;20045;-63
2022/09/29 05:02:34;;;;;;;3.97;2.63;;;11.60;99.90;;;;;;10020719;28;20412;-62
2022/09/29 05:07:25;;;;;;;6.13;3.20;;;11.60;99.90;;;;;;10017511;28;20034;-63
2022/09/29 05:12:15;;;;;;;7.07;3.03;;;11.70;99.90;;;;;;10020321;28;20030;-62
2022/09/29 05:17:06;;;;;;;5.60;3.42;;;11.70;99.90;;;;;;10019349;28;20519;-63
2022/09/29 05:22:00;;;;;;;8.55;3.50;;;11.60;99.90;;;;;;10018435;28;20030;-63
2022/09/29 05:26:51;;;;;;;9.82;5.25;;;11.60;99.90;;;;;;10014305;28;20096;-62
2022/09/29 05:31:42;;;;;;;9.05;4.95;;;11.70;99.90;;;;;;10012800;28;20109;-64
2022/09/29 05:36:33;;;;;;;9.45;4.28;;;11.60;99.90;;;;;;10020180;28;20104;-64
2022/09/29 05:41:24;;;;;;;8.60;4.90;;;11.60;99.90;;;;;;10019449;28;20056;-63
2022/09/29 05:46:15;;;;;;;10.65;5.75;;;11.70;99.90;;;;;;10018371;28;20239;-65
2022/09/29 05:51:14;;;;;;;10.05;4.93;;;11.70;99.90;;;;;;10018249;28;20121;-62
2022/09/29 05:56:18;;;;;;;9.32;3.97;;;11.90;99.90;;;;;;10019050;28;20044;-64
2022/09/29 06:01:14;;;;;;;8.07;4.22;;;11.90;99.90;;;;;;10017304;28;20033;-63
2022/09/29 06:06:08;;;;;;;7.80;4.40;;;12.00;99.90;;;;;;10017944;28;20061;-62
2022/09/29 06:11:06;;;;;;;4.28;2.95;;;12.00;99.90;;;;;;10016033;28;20484;-63
2022/09/29 06:16:00;;;;;;;4.47;2.83;;;12.00;99.90;;;;;;10014573;28;20037;-62
2022/09/29 06:20:51;;;;;;;3.80;3.15;;;12.10;99.90;;;;;;10017261;28;20410;-63
2022/09/29 06:25:41;;;;;;;5.63;3.28;;;12.10;99.90;;;;;;10017732;28;20026;-62
2022/09/29 06:30:32;;;;;;;3.63;1.98;;;12.30;99.90;;;;;;10017080;28;20185;-63
2022/09/29 06:40:32;;;;;;;4.78;2.15;;;12.30;99.90;;;;;;9988055;28;20161;-68
2022/09/29 06:45:23;;;;;;;3.80;2.03;;;12.20;99.90;;;;;;10001932;28;20498;-61
2022/09/29 06:50:13;;;;;;;6.30;3.20;;;12.10;99.90;;;;;;9993916;28;20061;-59
2022/09/29 06:55:04;;;;;;;5.30;2.67;;;12.20;99.90;;;;;;9984872;28;20030;-60
2022/09/29 06:59:55;;;;;;;5.88;3.10;;;12.10;99.90;;;;;;9989638;28;20608;-64
2022/09/29 07:04:47;;;;;;;4.28;2.78;;;12.20;99.90;;;;;;9990275;28;20155;-60
2022/09/29 07:09:38;;;;;;;6.47;3.80;;;12.20;99.90;;;;;;9983158;28;20405;-62
2022/09/29 07:14:29;;;;;;;4.85;3.47;;;12.30;99.90;;;;;;9990771;28;20030;-60
2022/09/29 07:19:20;;;;;;;3.33;2.60;;;12.30;99.90;;;;;;9992366;28;20123;-62
2022/09/29 07:24:11;;;;;;;4.95;3.40;;;12.40;99.90;;;;;;9999926;28;20145;-61
2022/09/29 07:29:02;;;;;;;5.53;3.25;;;12.50;99.90;;;;;;9989484;28;20030;-61
2022/09/29 07:33:55;;;;;;;6.22;2.95;;;12.30;99.90;;;;;;9982247;28;20045;-64
2022/09/29 07:38:47;;;;;;;4.07;2.42;;;12.50;99.90;;;;;;10011559;28;20030;-65
2022/09/29 07:43:38;;;;;;;3.72;2.28;;;12.70;99.90;;;;;;10013568;28;20044;-63
2022/09/29 07:48:31;;;;;;;6.13;3.17;;;13.10;99.90;;;;;;10014573;28;20435;-62
2022/09/29 07:53:23;;;;;;;5.45;2.92;;;13.10;99.90;;;;;;10015281;28;20040;-62
2022/09/29 07:58:13;;;;;;;4.22;2.33;;;13.20;99.90;;;;;;10013160;28;20037;-61
2022/09/29 08:03:06;;;;;;;4.75;2.30;;;13.40;99.90;;;;;;10014367;28;20114;-62
2022/09/29 08:07:57;;;;;;;3.75;2.25;;;13.60;99.90;;;;;;10014038;28;20456;-61
2022/09/29 08:12:51;;;;;;;5.13;2.53;;;13.80;99.90;;;;;;10013913;28;20108;-62
2022/09/29 08:17:42;;;;;;;4.93;2.65;;;14.10;99.90;;;;;;10012496;28;20038;-61
2022/09/29 08:22:34;;;;;;;5.43;3.03;;;14.20;99.90;;;;;;10012982;28;20117;-61
2022/09/29 08:27:25;;;;;;;3.55;2.60;;;14.10;99.90;;;;;;10007497;28;20030;-61
2022/09/29 08:32:16;;;;;;;4.10;3.25;;;14.00;99.90;;;;;;10003534;28;20035;-61
2022/09/29 08:37:06;;;;;;;4.22;2.65;;;14.00;99.90;;;;;;9982442;28;20038;-60
2022/09/29 08:42:05;;;;;;;5.03;2.55;;;14.10;99.90;;;;;;9989717;28;20345;-60
2022/09/29 08:47:14;;;;;;;5.10;2.80;;;14.20;99.90;;;;;;9985050;28;20053;-60
2022/09/29 08:52:12;;;;;;;6.32;3.42;;;14.50;99.90;;;;;;9976457;28;20043;-59
2022/09/29 08:57:04;;;;;;;5.78;3.63;;;14.60;99.90;;;;;;9989784;28;20508;-61
2022/09/29 09:02:33;;;;;;;6.03;2.67;;;14.70;99.90;;;;;;9983400;28;20437;-60
2022/09/29 09:07:44;;;;;;;5.57;2.85;;;15.00;99.90;;;;;;9986120;28;20049;-61
2022/09/29 09:13:05;;;;;;;3.97;2.45;;;14.90;99.90;;;;;;9994161;28;20033;-62
2022/09/29 09:18:15;;;;;;;4.88;2.70;;;14.70;99.90;;;;;;9993399;28;20488;-64
2022/09/29 09:23:21;;;;;;;4.13;2.13;;;14.90;99.90;;;;;;10002544;28;20142;-60
2022/09/29 09:28:30;;;;;;;2.28;1.63;;;15.10;99.90;;;;;;9988735;28;20022;-61
2022/09/29 09:33:47;;;;;;;3.30;1.98;;;15.30;99.90;;;;;;9999395;28;20053;-62
2022/09/29 09:38:43;;;;;;;5.88;1.77;;;15.40;99.90;;;;;;9991201;28;20038;-62
2022/09/29 09:43:43;;;;;;;3.72;1.65;;;15.60;99.90;;;;;;9997894;28;20409;-61
2022/09/29 09:48:57;;;;;;;3.67;1.70;;;15.70;99.90;;;;;;9982265;28;20041;-60
2022/09/29 09:53:52;;;;;;;1.55;1.45;;;15.70;99.90;;;;;;10013062;28;20113;-62
2022/09/29 09:59:00;;;;;;;4.13;1.60;;;15.50;99.90;;;;;;10016369;28;20041;-59
2022/09/29 10:03:51;;;;;;;3.50;1.65;;;15.20;99.90;;;;;;10018306;28;20197;-61
2022/09/29 10:08:43;;;;;;;6.45;1.38;;;15.30;99.90;;;;;;10004433;28;20153;-65
2022/09/29 10:13:34;;;;;;;5.53;1.45;;;15.40;99.90;;;;;;10004998;28;20052;-61
2022/09/29 10:18:51;;;;;;;2.72;1.55;;;15.70;99.90;;;;;;9989947;28;20393;-60
2022/09/29 10:23:50;;;;;;;2.33;1.98;;;15.80;99.90;;;;;;10006859;28;20368;-60
2022/09/29 10:28:45;;;;;;;3.30;1.80;;;15.70;99.90;;;;;;10008012;28;20038;-61
2022/09/29 10:33:36;;;;;;;3.13;2.25;;;15.70;99.90;;;;;;10017272;28;20113;-60
2022/09/29 10:38:27;;;;;;;2.78;1.33;;;15.60;99.90;;;;;;10015395;28;20317;-61
2022/09/29 10:43:30;;;;;;;2.05;1.20;;;15.80;99.90;;;;;;10012533;28;20065;-60
2022/09/29 10:48:21;;;;;;;3.95;1.48;;;16.20;99.90;;;;;;10013956;28;20111;-61
2022/09/29 10:53:37;;;;;;;2.90;1.23;;;16.40;99.90;;;;;;10015413;28;20030;-61
2022/09/29 10:58:38;;;;;;;2.58;1.52;;;16.50;99.90;;;;;;10015967;28;20029;-61
2022/09/29 11:03:29;;;;;;;2.00;1.40;;;16.60;99.90;;;;;;10016094;28;20048;-65
2022/09/29 11:08:24;;;;;;;3.55;2.35;;;16.50;99.90;;;;;;10016430;28;20523;-62
2022/09/29 11:13:18;;;;;;;3.70;1.92;;;16.40;99.90;;;;;;10015450;28;20260;-63
2022/09/29 11:18:33;;;;;;;7.03;1.60;;;16.50;99.90;;;;;;10014126;28;20187;-63
2022/09/29 11:23:37;;;;;;;3.07;1.60;;;16.80;99.90;;;;;;10015348;28;20022;-62
2022/09/29 11:28:42;;;;;;;2.30;1.45;;;16.40;99.90;;;;;;10006385;28;20022;-63
2022/09/29 11:34:03;;;;;;;;;;;16.40;99.90;;;;;;10015795;28;20021;-65
2022/09/29 11:39:22;;;;;;;3.47;1.23;;;16.40;99.90;;;;;;10002254;28;20561;-60
2022/09/29 11:44:38;;;;;;;3.65;1.58;;;16.60;99.90;;;;;;10013497;28;20037;-61
2022/09/29 11:49:55;;;;;;;2.65;1.80;;;16.80;99.90;;;;;;10015027;28;20050;-60
2022/09/29 11:55:21;;;;;;;1.60;0.88;;;17.20;99.90;;;;;;10030140;28;20076;-60
2022/09/29 12:00:14;;;;;;;3.50;2.08;;;16.90;99.90;;;;;;10023367;28;20057;-61
2022/09/29 12:05:24;;;;;;;1.48;1.10;;;16.60;99.90;;;;;;10014428;28;20617;-65
2022/09/29 12:10:14;;;;;;;1.75;1.20;;;16.70;99.90;;;;;;10010742;28;20404;-65
2022/09/29 12:15:29;;;;;;;2.70;1.60;;;16.60;99.90;;;;;;10005778;28;20033;-61
2022/09/29 12:20:34;;;;;;;1.33;0.80;;;16.80;99.90;;;;;;10003781;28;20038;-62
2022/09/29 12:25:28;;;;;;;0.88;0.68;;;16.90;99.90;;;;;;9990714;28;20480;-62
2022/09/29 12:30:28;;;;;;;2.38;0.98;;;16.80;99.90;;;;;;9990994;28;20038;-61
2022/09/29 12:35:36;;;;;;;1.73;0.93;;;16.60;99.90;;;;;;9994899;28;20034;-61
2022/09/29 12:40:37;;;;;;;2.95;0.80;;;16.60;99.90;;;;;;10013074;28;20034;-59
2022/09/29 12:45:34;;;;;;;1.58;1.38;;;16.70;99.90;;;;;;10013226;28;20048;-60
2022/09/29 12:50:50;;;;;;;1.52;0.90;;;16.60;99.90;;;;;;10010618;28;20128;-59
2022/09/29 12:55:41;;;;;;;1.10;0.80;;;16.60;99.90;;;;;;10007371;28;20358;-61
2022/09/29 13:00:34;;;;;;;3.97;0.82;;;16.70;99.90;;;;;;10012459;28;20254;-60
2022/09/29 13:05:56;;;;;;;2.10;1.00;;;16.90;99.90;;;;;;10012738;28;20320;-59
2022/09/29 13:11:05;;;;;;;1.38;0.70;;;17.20;99.70;;;;;;9995427;28;20025;-64
2022/09/29 13:16:15;;;;;;;3.28;1.00;;;17.40;99.80;;;;;;10019587;28;20080;-61
2022/09/29 13:21:31;;;;;;;2.38;1.00;;;17.20;99.50;;;;;;10028788;28;20044;-61
2022/09/29 13:26:41;;;;;;;1.98;0.77;;;17.10;99.60;;;;;;10019598;28;20029;-62
2022/09/29 13:31:38;;;;;;;0.68;0.55;;;16.90;99.60;;;;;;10012468;28;20022;-64
2022/09/29 13:36:42;;;;;;;2.22;0.73;;;16.90;99.50;;;;;;10015634;28;20042;-62
2022/09/29 13:41:38;;;;;;;0.45;0.45;;;16.90;99.30;;;;;;10010575;28;20520;-60
2022/09/29 13:46:29;;;;;;;;;;;16.80;99.60;;;;;;10018569;28;20037;-60
2022/09/29 13:51:28;;;;;;;2.45;0.55;;;16.60;99.20;;;;;;10017690;28;19925;-60
2022/09/29 13:56:20;;;;;;;2.70;0.90;;;16.70;99.30;;;;;;10008976;28;20037;-62
2022/09/29 14:01:27;;;;;;;2.53;1.00;;;16.60;99.20;;;;;;10016653;28;20132;-62
2022/09/29 14:06:21;;;;;;;1.05;0.88;;;16.80;99.10;;;;;;10015542;28;20056;-59
2022/09/29 14:11:23;;;;;;;1.33;0.60;;;16.90;99.00;;;;;;10017680;28;20539;-60
2022/09/29 14:16:48;;;;;;;1.48;0.80;;;17.10;98.60;;;;;;10017987;28;20033;-63
2022/09/29 14:21:48;;;;;;;1.60;0.80;;;17.10;98.50;;;;;;10017191;28;20480;-61
2022/09/29 14:26:47;;;;;;;2.65;0.93;;;17.20;98.50;;;;;;10016950;28;20753;-59
2022/09/29 14:31:38;;;;;;;2.33;1.10;;;17.10;98.50;;;;;;10010097;28;20021;-60
2022/09/29 14:36:33;;;;;;;2.22;1.27;;;16.90;98.60;;;;;;10016980;28;20037;-60
2022/09/29 14:41:33;;;;;;;1.63;1.40;;;17.00;98.60;;;;;;10017537;28;20080;-60
2022/09/29 14:52:25;;;;;;;0.70;0.70;;;17.20;98.20;;;;;;10016346;28;20056;-63
2022/09/29 14:57:38;;;;;;;1.73;1.20;;;17.10;98.20;;;;;;10013058;28;20117;-61
2022/09/29 15:02:34;;;;;;;1.98;1.05;;;17.00;98.20;;;;;;10015687;28;20237;-60
2022/09/29 15:07:27;;;;;;;3.13;0.88;;;16.90;98.40;;;;;;10014142;28;20084;-62
2022/09/29 15:12:27;;;;;;;2.00;1.00;;;16.70;98.40;;;;;;10004546;28;20029;-60
2022/09/29 15:17:30;;;;;;;1.40;1.20;;;16.60;98.60;;;;;;9992541;28;20660;-60
2022/09/29 15:22:36;;;;;;;1.75;0.80;;;16.50;98.40;;;;;;9999217;28;20029;-63
2022/09/29 15:27:27;;;;;;;;;;;16.40;98.40;;;;;;9989844;28;20041;-61
2022/09/29 15:32:25;;;;;;;2.22;1.63;;;16.20;98.40;;;;;;10009773;28;19912;-62
2022/09/29 15:37:16;;;;;;;3.10;1.15;;;15.80;98.60;;;;;;10011279;28;20034;-62
2022/09/29 15:42:17;;;;;;;2.35;1.35;;;15.50;98.80;;;;;;10013904;28;20026;-59
2022/09/29 15:47:24;;;;;;;1.00;0.70;;;15.30;99.00;;;;;;10015576;28;20504;-62
2022/09/29 15:52:17;;;;;;;3.90;1.08;;;15.20;98.90;;;;;;10014362;28;20042;-62
2022/09/29 15:57:43;;;;;;;3.60;1.40;;;15.10;99.10;;;;;;10013105;28;20034;-66
2022/09/29 16:02:40;;;;;;;2.53;1.10;;;14.90;99.20;;;;;;10014387;28;20038;-63
2022/09/29 16:07:37;;;;;;;1.70;1.25;;;14.60;99.30;;;;;;10013102;28;20487;-60
2022/09/29 16:12:32;;;;;;;1.88;1.25;;;14.30;99.50;;;;;;10012133;28;20025;-62
2022/09/29 16:17:24;;;;;;;4.57;1.40;;;14.30;99.60;;;;;;10012252;28;20117;-65
2022/09/29 16:22:22;;;;;;;2.30;0.80;;;14.40;99.70;;;;;;10003054;28;20109;-63
2022/09/29 16:27:42;;;;;;;1.75;1.08;;;14.30;99.90;;;;;;10006684;28;20030;-61
2022/09/29 16:32:33;;;;;;;6.28;1.23;;;14.30;99.90;;;;;;10008752;28;20471;-63
2022/09/29 16:37:27;;;;;;;2.55;1.17;;;14.20;99.90;;;;;;10013266;28;20065;-58
2022/09/29 16:42:25;;;;;;;6.05;1.10;;;14.20;99.90;;;;;;10015016;28;20029;-63
2022/09/29 16:47:27;;;;;;;3.40;1.23;;;14.20;99.90;;;;;;10019888;28;20037;-61
2022/09/29 16:52:40;;;;;;;3.45;0.95;;;14.30;99.90;;;;;;10020514;28;20053;-62
2022/09/29 16:57:33;;;;;;;2.33;1.15;;;14.20;99.90;;;;;;10020126;28;20049;-61
2022/09/29 17:02:25;;;;;;;1.73;1.10;;;14.10;99.90;;;;;;10019664;28;20496;-58
2022/09/29 17:07:17;;;;;;;1.05;0.80;;;14.20;99.90;;;;;;10019529;28;20026;-63
2022/09/29 17:12:12;;;;;;;2.72;1.58;;;14.30;99.90;;;;;;10020657;28;20088;-60
2022/09/29 17:17:02;;;;;;;3.70;1.85;;;14.10;99.90;;;;;;10019176;28;20044;-61
2022/09/29 17:21:54;;;;;;;2.25;1.65;;;13.90;99.90;;;;;;10019040;28;20022;-61
2022/09/29 17:31:54;;;;;;;3.55;1.52;;;13.90;99.90;;;;;;10021006;28;20072;-59
2022/09/29 17:36:45;;;;;;;3.17;2.00;;;14.00;99.90;;;;;;10018895;28;20064;-61
2022/09/29 17:41:36;;;;;;;5.05;2.22;;;14.00;99.90;;;;;;10016098;28;20030;-60
2022/09/29 17:46:26;;;;;;;5.25;3.20;;;14.00;99.90;;;;;;10016952;28;20042;-59
2022/09/29 17:51:17;;;;;;;3.50;2.67;;;13.90;99.90;;;;;;10018761;28;20405;-60
2022/09/29 17:56:31;;;;;;;6.03;2.13;;;13.80;99.90;;;;;;10014003;28;20136;-59
2022/09/29 18:01:24;;;;;;;5.82;2.92;;;13.80;99.90;;;;;;10019688;28;20066;-62
2022/09/29 18:06:20;;;;;;;3.00;2.20;;;13.80;99.90;;;;;;10019284;28;20424;-60
2022/09/29 18:11:11;;;;;;;10.05;3.28;;;13.70;99.90;;;;;;10018372;28;20026;-64
2022/09/29 18:16:02;;;;;;;4.82;1.92;;;13.70;99.90;;;;;;10017495;28;20048;-63
2022/09/29 18:20:53;;;;;;;3.95;1.73;;;13.70;99.90;;;;;;10009261;28;20038;-63
2022/09/29 18:25:46;;;;;;;3.22;1.40;;;13.70;99.90;;;;;;10003207;28;20018;-63
2022/09/29 18:30:40;;;;;;;5.95;1.40;;;13.60;99.90;;;;;;10017834;28;20021;-59
2022/09/29 18:35:32;;;;;;;3.30;1.30;;;13.50;99.90;;;;;;10018640;28;20109;-60
2022/09/29 18:40:24;;;;;;;2.67;1.25;;;13.50;99.90;;;;;;10003348;28;20053;-58
2022/09/29 18:45:22;;;;;;;1.90;1.27;;;13.50;99.90;;;;;;10010593;28;20380;-60
2022/09/29 18:50:21;;;;;;;2.80;1.15;;;13.50;99.90;;;;;;10009024;28;20041;-61
2022/09/29 18:55:12;;;;;;;1.70;1.20;;;13.50;99.90;;;;;;10008436;28;20034;-61
2022/09/29 19:00:05;;;;;;;2.72;1.65;;;13.40;99.90;;;;;;10011461;28;20226;-58
2022/09/29 19:04:56;;;;;;;4.07;2.10;;;13.40;99.90;;;;;;10018923;28;20037;-62
2022/09/29 19:09:46;;;;;;;4.00;1.80;;;13.30;99.90;;;;;;10014071;28;20441;-59
2022/09/29 19:14:37;;;;;;;5.90;2.10;;;13.30;99.90;;;;;;10031256;28;20183;-59
2022/09/29 19:19:28;;;;;;;4.13;1.80;;;13.30;99.90;;;;;;10013906;28;20408;-59
2022/09/29 19:24:22;;;;;;;2.28;1.70;;;13.20;99.90;;;;;;10012104;28;20033;-61
2022/09/29 19:29:13;;;;;;;4.17;1.67;;;13.10;99.90;;;;;;9994358;28;20033;-63
2022/09/29 19:34:04;;;;;;;3.90;1.73;;;13.10;99.90;;;;;;10013830;28;20033;-62
2022/09/29 19:38:54;;;;;;;2.42;1.45;;;13.10;99.90;;;;;;10014176;28;20104;-64
2022/09/29 19:43:46;;;;;;;2.25;1.50;;;13.00;99.90;;;;;;10014527;28;20044;-61
2022/09/29 19:48:37;;;;;;;2.38;1.50;;;13.00;99.90;;;;;;10012844;28;20309;-63
2022/09/29 19:53:28;;;;;;;2.55;1.98;;;13.10;99.90;;;;;;10014553;28;20026;-59
2022/09/29 19:58:18;;;;;;;3.10;1.83;;;13.10;99.90;;;;;;10012331;28;20680;-65
2022/09/29 20:03:10;;;;;;;1.83;1.40;;;13.10;99.90;;;;;;10014987;28;20240;-62
2022/09/29 20:08:01;;;;;;;3.17;1.83;;;13.10;99.90;;;;;;10013532;28;20088;-60
2022/09/29 20:12:52;;;;;;;3.28;1.80;;;13.00;99.90;;;;;;10004820;28;20030;-62
2022/09/29 20:17:43;;;;;;;4.20;1.80;;;12.90;99.90;;;;;;10013652;28;20141;-62
2022/09/29 20:22:35;;;;;;;2.83;1.80;;;12.90;99.90;;;;;;10015375;28;20026;-60
2022/09/29 20:27:26;;;;;;;4.95;2.55;;;12.80;99.90;;;;;;10008032;28;20512;-64
2022/09/29 20:32:17;;;;;;;3.80;2.22;;;12.70;99.90;;;;;;10014431;28;20029;-59
2022/09/29 20:37:08;;;;;;;3.85;2.00;;;12.60;99.90;;;;;;10013813;28;20045;-63
2022/09/29 20:41:59;;;;;;;4.65;1.92;;;12.60;99.90;;;;;;10014042;28;20519;-61
2022/09/29 20:46:50;;;;;;;3.15;2.00;;;12.60;99.90;;;;;;10012129;28;20526;-60
2022/09/29 20:51:40;;;;;;;2.88;2.05;;;12.70;99.90;;;;;;10013241;28;20034;-62
2022/09/29 20:56:39;;;;;;;2.80;1.90;;;12.60;99.90;;;;;;10011223;28;20046;-61
2022/09/29 21:01:31;;;;;;;3.72;1.80;;;12.70;99.90;;;;;;10011931;28;20519;-60
2022/09/29 21:06:24;;;;;;;3.97;1.95;;;12.80;99.90;;;;;;10006673;28;20096;-61
2022/09/29 21:11:15;;;;;;;3.38;1.35;;;12.90;99.90;;;;;;10005628;28;20506;-63
2022/09/29 21:16:06;;;;;;;5.15;2.38;;;12.90;99.90;;;;;;10005490;28;20039;-60
2022/09/29 21:21:01;;;;;;;4.00;2.17;;;12.90;99.90;;;;;;10007785;28;20512;-62
2022/09/29 21:26:23;;;;;;;3.78;1.83;;;12.90;99.90;;;;;;10011201;28;20037;-63
2022/09/29 21:31:16;;;;;;;4.43;1.70;;;12.80;99.90;;;;;;10003553;28;20281;-60
2022/09/29 21:36:09;;;;;;;2.22;1.55;;;12.80;99.90;;;;;;10018538;28;20029;-62
2022/09/29 21:41:08;;;;;;;2.45;1.48;;;13.00;99.90;;;;;;10018968;28;20033;-63
2022/09/29 21:46:01;;;;;;;1.60;1.27;;;13.00;99.90;;;;;;10006296;28;20073;-63
2022/09/29 21:50:51;;;;;;;4.20;1.40;;;12.90;99.90;;;;;;10018794;28;20095;-64
2022/09/29 21:55:42;;;;;;;1.83;1.27;;;13.00;99.90;;;;;;10018275;28;20085;-60
2022/09/29 22:00:33;;;;;;;3.35;1.90;;;13.00;99.90;;;;;;10018297;28;20105;-62
2022/09/29 22:05:24;;;;;;;3.97;2.13;;;12.90;99.90;;;;;;10018449;28;20623;-60
2022/09/29 22:10:15;;;;;;;2.80;1.80;;;12.80;99.90;;;;;;10018576;28;20173;-60
2022/09/29 22:15:06;;;;;;;4.30;2.25;;;12.60;99.90;;;;;;10017473;28;20327;-61
2022/09/29 22:19:57;;;;;;;6.05;2.00;;;12.50;99.90;;;;;;10017321;28;20337;-64
2022/09/29 22:24:48;;;;;;;3.25;2.15;;;12.60;99.90;;;;;;10011199;28;20327;-61
2022/09/29 22:29:38;;;;;;;2.90;2.13;;;12.40;99.90;;;;;;10013919;28;20018;-62
2022/09/29 22:34:29;;;;;;;3.17;2.22;;;12.40;99.90;;;;;;10005774;28;20022;-67
2022/09/29 22:39:19;;;;;;;2.83;2.03;;;12.30;99.90;;;;;;10015912;28;20050;-62
2022/09/29 22:44:11;;;;;;;4.68;2.50;;;12.30;99.90;;;;;;10015412;28;20140;-66
2022/09/29 22:49:02;;;;;;;2.65;2.08;;;12.20;99.90;;;;;;10016354;28;20049;-62
2022/09/29 22:53:53;;;;;;;2.95;1.80;;;12.20;99.90;;;;;;10016618;28;20029;-66
2022/09/29 22:58:44;;;;;;;2.80;2.05;;;12.30;99.90;;;;;;10015710;28;20416;-62
2022/09/29 23:03:35;;;;;;;3.63;2.17;;;12.40;99.90;;;;;;10016371;28;20073;-65
2022/09/29 23:08:26;;;;;;;3.63;2.25;;;12.30;99.90;;;;;;9998319;28;20033;-68
2022/09/29 23:13:19;;;;;;;2.70;1.95;;;12.30;99.90;;;;;;10015856;28;20022;-67
2022/09/29 23:18:09;;;;;;;3.42;1.80;;;12.20;99.90;;;;;;10013528;28;20045;-63
2022/09/29 23:23:00;;;;;;;4.43;2.30;;;12.10;99.90;;;;;;10015361;28;20018;-62
2022/09/29 23:27:50;;;;;;;3.13;1.98;;;12.30;99.90;;;;;;10015123;28;20257;-69
2022/09/29 23:32:41;;;;;;;2.65;1.60;;;12.30;99.90;;;;;;10015448;28;20022;-66
2022/09/29 23:39:08;;;;;;;2.72;1.90;;;12.40;99.90;;;;;;10014548;28;20065;-62
2022/09/29 23:42:43;;;;;;;4.82;2.03;;;12.50;99.90;;;;;;10013841;28;20072;-64
2022/09/29 23:47:34;;;;;;;2.70;1.73;;;12.60;99.90;;;;;;10013290;28;20049;-70
2022/09/29 23:52:25;;;;;;;2.53;1.42;;;12.60;99.90;;;;;;10012787;28;20018;-70
2022/09/29 23:57:16;;;;;;;3.42;1.55;;;12.50;99.90;;;;;;10009420;28;20478;-64
